Time;durP1;ratioP1;P1;durP2;ratioP2;P2;SDS_P1;SDS_P2;PMS_P1;PMS_P2;Temp;Humidity;BMP_temperature;BMP_pressure;BME280_temperature;BME280_humidity;BME280_pressure;Samples;Min_cycle;Max_cycle;Signal;HPM_P1;HPM_P2
2022/11/09 00:00:43;;;;;;;2.53;1.70;;;;;;;13.69;75.74;100727.00;5011980;28;20191;-78
2022/11/09 00:03:10;;;;;;;3.10;2.00;;;;;;;13.65;75.52;100728.72;5011273;28;20215;-77
2022/11/09 00:05:35;;;;;;;4.00;1.93;;;;;;;13.64;76.00;100713.25;5015783;28;20198;-77
2022/11/09 00:08:04;;;;;;;4.17;1.80;;;;;;;13.63;76.15;100717.53;5017372;28;20229;-78
2022/11/09 00:10:30;;;;;;;2.17;1.83;;;;;;;13.64;75.94;100718.41;5014021;28;20234;-77
2022/11/09 00:12:57;;;;;;;3.47;1.90;;;;;;;13.62;76.19;100715.81;5014204;28;20214;-78
2022/11/09 00:15:22;;;;;;;7.50;2.23;;;;;;;13.67;75.79;100713.28;5014390;28;20675;-78
2022/11/09 00:17:48;;;;;;;3.87;2.10;;;;;;;13.69;75.94;100719.28;5006215;28;20199;-78
2022/11/09 00:20:13;;;;;;;2.60;1.77;;;;;;;13.67;75.92;100711.56;5014111;28;20194;-77
2022/11/09 00:22:39;;;;;;;4.10;1.57;;;;;;;13.72;75.59;100712.44;5014983;28;20668;-78
2022/11/09 00:25:05;;;;;;;3.57;2.10;;;;;;;13.71;75.92;100715.88;5013849;28;20211;-78
2022/11/09 00:27:30;;;;;;;2.43;1.73;;;;;;;13.76;75.44;100721.91;5013918;28;20183;-77
2022/11/09 00:29:56;;;;;;;5.50;1.87;;;;;;;13.79;75.93;100711.63;5013849;28;20357;-77
2022/11/09 00:32:21;;;;;;;3.77;2.00;;;;;;;13.76;75.45;100703.03;5014863;28;20547;-77
2022/11/09 00:34:47;;;;;;;3.70;2.20;;;;;;;13.76;75.58;100695.31;5013468;28;20207;-78
2022/11/09 00:37:12;;;;;;;2.03;1.80;;;;;;;13.78;75.80;100698.75;5014795;28;20193;-77
2022/11/09 00:39:37;;;;;;;3.10;1.60;;;;;;;13.85;75.25;100701.34;5014251;28;20217;-77
2022/11/09 00:42:03;;;;;;;3.53;1.80;;;;;;;13.81;75.58;100703.91;5014229;28;20234;-77
2022/11/09 00:44:28;;;;;;;3.17;1.60;;;;;;;13.79;76.02;100705.59;4996992;28;20314;-78
2022/11/09 00:46:54;;;;;;;2.40;1.60;;;;;;;13.76;75.90;100697.88;5012846;28;20333;-77
2022/11/09 00:49:19;;;;;;;4.57;2.00;;;;;;;13.88;75.70;100688.50;5005057;28;20673;-78
2022/11/09 00:51:44;;;;;;;2.93;1.80;;;;;;;13.80;75.54;100681.56;5013327;28;20522;-78
2022/11/09 00:54:11;;;;;;;4.20;1.70;;;;;;;13.75;76.06;100683.28;5014721;28;20199;-78
2022/11/09 00:56:36;;;;;;;3.60;1.90;;;;;;;13.71;76.79;100681.56;5013486;28;20240;-77
2022/11/09 00:59:02;;;;;;;3.93;2.30;;;;;;;13.66;76.67;100675.50;5010903;28;20202;-77
2022/11/09 01:01:28;;;;;;;3.73;1.57;;;;;;;13.60;76.75;100685.78;5012972;28;20198;-77
2022/11/09 01:03:53;;;;;;;3.27;1.80;;;;;;;13.61;76.76;100684.94;5014487;28;20211;-77
2022/11/09 01:06:21;;;;;;;2.00;1.80;;;;;;;13.54;77.53;100684.03;5013676;28;20732;-78
2022/11/09 01:08:47;;;;;;;2.40;1.50;;;;;;;13.50;77.48;100684.91;5013030;28;20636;-77
2022/11/09 01:11:15;;;;;;;6.07;2.00;;;;;;;13.46;77.45;100687.44;5001967;28;20188;-78
2022/11/09 01:13:40;;;;;;;1.83;1.63;;;;;;;13.44;77.62;100681.44;5003001;28;20277;-78
2022/11/09 01:16:15;;;;;;;1.90;1.60;;;;;;;13.44;77.32;100692.56;5011555;28;20187;-77
2022/11/09 01:18:41;;;;;;;4.30;2.10;;;;;;;13.40;77.93;100684.84;4998127;28;20187;-77
2022/11/09 01:21:10;;;;;;;2.70;2.10;;;;;;;13.38;78.37;100683.97;5012636;28;20195;-77
2022/11/09 01:23:36;;;;;;;4.83;2.20;;;;;;;13.33;78.12;100681.38;5013022;28;20219;-78
2022/11/09 01:26:05;;;;;;;3.53;2.03;;;;;;;13.32;78.16;100682.25;5013325;28;20195;-77
2022/11/09 01:28:31;;;;;;;4.27;2.00;;;;;;;13.28;78.43;100679.63;5014644;28;20191;-77
2022/11/09 01:31:06;;;;;;;3.53;2.00;;;;;;;13.28;78.36;100680.50;5012947;28;20206;-77
2022/11/09 01:33:32;;;;;;;3.70;1.90;;;;;;;13.29;78.56;100671.91;5013647;28;20213;-78
2022/11/09 01:36:05;;;;;;;4.33;2.10;;;;;;;13.27;79.07;100671.06;5011024;28;20238;-78
2022/11/09 01:38:31;;;;;;;3.20;1.80;;;;;;;13.26;79.17;100665.91;4997170;28;20202;-78
2022/11/09 01:40:57;;;;;;;3.80;2.13;;;;;;;13.27;78.90;100663.34;5012892;28;20775;-78
2022/11/09 01:43:23;;;;;;;3.47;1.63;;;;;;;13.24;79.18;100665.91;5014934;28;20250;-78
2022/11/09 01:46:13;;;;;;;2.70;1.83;;;;;;;13.25;79.34;100659.06;5015493;28;20849;-78
2022/11/09 01:49:01;;;;;;;4.90;2.10;;;;;;;13.24;79.18;100659.88;5026899;28;20218;-77
2022/11/09 01:51:41;;;;;;;2.23;1.77;;;;;;;13.26;79.29;100658.19;5010134;28;20195;-78
2022/11/09 01:54:15;;;;;;;4.43;1.67;;;;;;;13.20;79.17;100668.41;5006693;28;20216;-78
2022/11/09 01:56:43;;;;;;;3.60;1.90;;;;;;;13.17;79.78;100658.13;5012868;28;20249;-78
2022/11/09 01:59:16;;;;;;;2.00;1.70;;;;;;;13.14;79.75;100655.53;5013832;28;20213;-78
2022/11/09 02:01:44;;;;;;;3.77;2.10;;;;;;;13.12;80.12;100654.69;4996869;28;20191;-78
2022/11/09 02:04:19;;;;;;;3.43;1.80;;;;;;;13.11;79.94;100650.41;4997522;28;20219;-78
2022/11/09 02:06:46;;;;;;;3.83;1.70;;;;;;;13.08;79.82;100656.34;4994773;28;20193;-78
2022/11/09 02:09:23;;;;;;;3.00;1.70;;;;;;;13.07;80.03;100664.91;5014518;28;20237;-78
2022/11/09 02:11:48;;;;;;;3.53;1.70;;;;;;;13.09;79.94;100658.09;5013436;28;20178;-78
2022/11/09 02:14:14;;;;;;;2.50;1.80;;;;;;;13.07;80.17;100659.78;5013410;28;20838;-78
2022/11/09 02:16:40;;;;;;;3.17;1.87;;;;;;;13.08;79.88;100658.09;4997346;28;20250;-77
2022/11/09 02:19:06;;;;;;;6.13;1.80;;;;;;;13.09;80.46;100654.66;5013265;28;20648;-78
2022/11/09 02:21:32;;;;;;;5.10;1.80;;;;;;;13.07;80.05;100653.81;5011138;28;20222;-78
2022/11/09 02:23:58;;;;;;;2.93;1.80;;;;;;;13.09;80.16;100650.38;5013369;28;20218;-78
2022/11/09 02:26:40;;;;;;;2.90;2.20;;;;;;;13.10;80.40;100644.38;5013760;28;20603;-78
2022/11/09 02:29:08;;;;;;;4.67;2.03;;;;;;;13.12;80.46;100644.41;5013683;28;20566;-77
2022/11/09 02:31:38;;;;;;;2.73;1.90;;;;;;;13.10;80.14;100646.97;5013642;28;20187;-78
2022/11/09 02:34:26;;;;;;;4.20;1.87;;;;;;;13.15;80.06;100639.25;5011942;28;20207;-78
2022/11/09 02:36:52;;;;;;;5.53;2.10;;;;;;;13.21;80.24;100639.31;4997402;28;20230;-78
2022/11/09 02:39:23;;;;;;;5.00;2.00;;;;;;;13.24;80.22;100636.75;4993435;28;20187;-76
2022/11/09 02:41:55;;;;;;;5.70;2.50;;;;;;;13.26;80.19;100635.88;4992939;28;20601;-78
2022/11/09 02:44:22;;;;;;;5.90;1.97;;;;;;;13.25;80.26;100644.47;5013861;28;20211;-78
2022/11/09 02:46:48;;;;;;;3.80;1.83;;;;;;;13.32;80.48;100647.94;5013608;28;20236;-78
2022/11/09 02:49:14;;;;;;;3.50;1.90;;;;;;;13.38;80.30;100640.22;5013204;28;20186;-78
2022/11/09 02:51:40;;;;;;;2.70;2.03;;;;;;;13.38;79.75;100648.81;5012736;28;20222;-78
2022/11/09 02:54:05;;;;;;;1.70;1.60;;;;;;;13.41;80.15;100646.28;5013175;28;20225;-78
2022/11/09 02:56:30;;;;;;;3.10;1.57;;;;;;;13.45;79.44;100650.56;5013167;28;20207;-78
2022/11/09 02:58:56;;;;;;;3.80;2.10;;;;;;;13.44;79.76;100655.72;4996615;28;20188;-78
2022/11/09 03:01:22;;;;;;;2.23;1.40;;;;;;;13.50;80.03;100648.88;5014887;28;20213;-77
2022/11/09 03:03:47;;;;;;;3.20;1.90;;;;;;;13.50;79.28;100653.16;5016639;28;20222;-78
2022/11/09 03:06:13;;;;;;;3.27;2.00;;;;;;;13.51;79.04;100645.47;4997437;28;20196;-78
2022/11/09 03:08:41;;;;;;;2.40;1.80;;;;;;;13.53;79.26;100653.19;5013613;28;20824;-78
2022/11/09 03:11:07;;;;;;;2.47;1.90;;;;;;;13.54;78.90;100650.59;5016541;28;20277;-78
2022/11/09 03:13:33;;;;;;;6.07;2.03;;;;;;;13.56;79.31;100651.47;4999869;28;20207;-77
2022/11/09 03:16:04;;;;;;;2.03;1.80;;;;;;;13.62;78.53;100648.09;4999153;28;20269;-78
2022/11/09 03:18:29;;;;;;;2.47;1.73;;;;;;;13.63;78.60;100652.38;5000033;28;20234;-77
2022/11/09 03:21:00;;;;;;;2.77;1.93;;;;;;;13.62;78.61;100661.78;4997987;28;20202;-78
2022/11/09 03:23:25;;;;;;;3.60;1.90;;;;;;;13.60;79.05;100652.34;4993617;28;20218;-77
2022/11/09 03:25:51;;;;;;;2.10;1.70;;;;;;;13.63;78.89;100654.94;5016583;28;20215;-79
2022/11/09 03:28:17;;;;;;;4.07;1.80;;;;;;;13.61;78.71;100654.94;5015881;28;20183;-77
2022/11/09 03:30:42;;;;;;;3.83;2.00;;;;;;;13.59;78.88;100648.06;5016410;28;20199;-78
2022/11/09 03:33:09;;;;;;;2.53;2.07;;;;;;;13.57;79.08;100647.19;5016154;28;20210;-77
2022/11/09 03:35:36;;;;;;;2.80;1.70;;;;;;;13.57;79.10;100665.19;4999549;28;20210;-78
2022/11/09 03:38:02;;;;;;;3.27;2.03;;;;;;;13.59;78.81;100659.22;5015527;28;20189;-78
2022/11/09 03:40:29;;;;;;;2.73;1.80;;;;;;;13.57;79.10;100665.19;5016307;28;20191;-78
2022/11/09 03:42:55;;;;;;;5.07;2.47;;;;;;;13.57;79.22;100671.19;4999149;28;20198;-78
2022/11/09 03:45:22;;;;;;;4.53;2.20;;;;;;;13.55;79.39;100666.91;5015624;28;20217;-77
2022/11/09 03:47:47;;;;;;;3.77;2.17;;;;;;;13.54;79.48;100660.03;5017270;28;20187;-78
2022/11/09 03:50:15;;;;;;;5.37;2.47;;;;;;;13.60;78.94;100658.38;5014503;28;20175;-77
2022/11/09 03:52:44;;;;;;;7.17;2.17;;;;;;;13.53;79.60;100654.03;4998782;28;20242;-78
2022/11/09 03:55:09;;;;;;;3.20;1.90;;;;;;;13.51;80.14;100657.44;5012920;28;20191;-78
2022/11/09 03:57:35;;;;;;;2.60;2.13;;;;;;;13.49;80.03;100651.44;5012245;28;20191;-77
2022/11/09 04:00:00;;;;;;;5.23;2.10;;;;;;;13.46;80.36;100651.44;5014773;28;20215;-78
2022/11/09 04:02:25;;;;;;;4.20;1.97;;;;;;;13.46;80.30;100654.00;5013596;28;20743;-77
2022/11/09 04:04:51;;;;;;;2.20;1.80;;;;;;;13.41;80.70;100661.72;5014232;28;20628;-77
2022/11/09 04:07:16;;;;;;;3.40;2.00;;;;;;;13.39;81.02;100659.97;5016344;28;20191;-78
2022/11/09 04:09:42;;;;;;;3.27;1.90;;;;;;;13.36;81.22;100659.97;5014875;28;20270;-78
2022/11/09 04:12:07;;;;;;;4.23;2.47;;;;;;;13.33;80.93;100663.38;5012462;28;20223;-78
2022/11/09 04:14:33;;;;;;;2.67;1.73;;;;;;;13.31;81.37;100664.22;5006889;28;20274;-77
2022/11/09 04:16:58;;;;;;;5.23;2.23;;;;;;;13.29;81.38;100659.06;5014829;28;20730;-78
2022/11/09 04:19:23;;;;;;;2.83;2.10;;;;;;;13.26;81.37;100656.47;5016343;28;20195;-78
2022/11/09 04:21:49;;;;;;;5.47;2.33;;;;;;;13.24;81.72;100653.03;5014671;28;20680;-78
2022/11/09 04:24:15;;;;;;;3.93;2.13;;;;;;;13.23;81.26;100659.03;4998834;28;20748;-78
2022/11/09 04:26:40;;;;;;;4.90;2.10;;;;;;;13.21;81.67;100653.00;5014521;28;20252;-78
2022/11/09 04:29:06;;;;;;;4.07;2.20;;;;;;;13.18;82.14;100647.00;5013899;28;20284;-78
2022/11/09 04:31:31;;;;;;;3.63;2.20;;;;;;;13.20;81.96;100642.72;5015669;28;20278;-78
2022/11/09 04:33:57;;;;;;;2.57;2.00;;;;;;;13.19;82.03;100656.41;5014441;28;20207;-78
2022/11/09 04:36:22;;;;;;;2.13;1.90;;;;;;;13.17;82.50;100653.00;5015615;28;20270;-79
2022/11/09 04:38:48;;;;;;;2.73;2.00;;;;;;;13.17;82.36;100645.28;5016498;28;20183;-77
2022/11/09 04:41:14;;;;;;;5.07;2.40;;;;;;;13.17;82.56;100656.41;5016702;28;20555;-78
2022/11/09 04:43:39;;;;;;;4.80;2.10;;;;;;;13.17;82.41;100653.84;5013162;28;20792;-77
2022/11/09 04:46:05;;;;;;;7.87;2.97;;;;;;;13.15;82.76;100659.81;5010093;28;20278;-77
2022/11/09 04:48:31;;;;;;;3.67;2.27;;;;;;;13.14;82.76;100648.69;5014773;28;20199;-78
2022/11/09 04:51:01;;;;;;;2.67;2.00;;;;;;;13.16;82.58;100649.56;5015063;28;20192;-78
2022/11/09 04:53:27;;;;;;;2.93;2.00;;;;;;;13.12;82.60;100645.25;4996028;28;20685;-78
2022/11/09 04:55:53;;;;;;;4.53;2.37;;;;;;;13.14;82.77;100650.41;5016901;28;20201;-78
2022/11/09 04:58:18;;;;;;;3.13;2.10;;;;;;;13.13;82.40;100648.69;4999158;28;20199;-77
2022/11/09 05:00:44;;;;;;;4.10;2.20;;;;;;;13.08;83.09;100650.38;5015051;28;20199;-78
2022/11/09 05:03:09;;;;;;;3.40;2.17;;;;;;;13.09;82.76;100650.38;5014480;28;20229;-78
2022/11/09 05:05:36;;;;;;;4.07;2.03;;;;;;;13.11;82.42;100650.41;5015557;28;20278;-78
2022/11/09 05:08:02;;;;;;;3.80;2.10;;;;;;;13.12;82.03;100646.97;5002791;28;20187;-78
2022/11/09 05:10:28;;;;;;;3.60;2.40;;;;;;;13.10;82.23;100653.78;5015562;28;20195;-78
2022/11/09 05:13:02;;;;;;;12.70;2.50;;;;;;;13.08;82.59;100661.50;5014779;28;20194;-78
2022/11/09 05:15:27;;;;;;;5.07;2.53;;;;;;;13.07;82.77;100672.63;5015113;28;20195;-79
2022/11/09 05:17:53;;;;;;;3.47;2.57;;;;;;;13.07;82.41;100669.22;5016005;28;20197;-78
2022/11/09 05:20:19;;;;;;;3.80;2.60;;;;;;;13.10;82.23;100672.66;5016085;28;20194;-78
2022/11/09 05:25:29;;;;;;;3.40;2.27;;;;;;;13.12;81.89;100678.66;5016402;28;20852;-78
2022/11/09 05:27:54;;;;;;;3.27;2.40;;;;;;;13.13;82.35;100675.25;5014500;28;20198;-78
2022/11/09 05:30:20;;;;;;;3.03;2.10;;;;;;;13.14;82.52;100665.81;5008262;28;20952;-78
2022/11/09 05:32:45;;;;;;;5.17;2.37;;;;;;;13.17;81.97;100673.56;5014494;28;20194;-78
2022/11/09 05:35:11;;;;;;;6.47;2.20;;;;;;;13.14;82.14;100668.41;4998346;28;20190;-78
2022/11/09 05:37:39;;;;;;;2.93;2.00;;;;;;;13.16;82.17;100666.72;5014487;28;20294;-78
2022/11/09 05:40:06;;;;;;;3.90;2.07;;;;;;;13.16;81.95;100666.72;5015044;28;20175;-78
2022/11/09 05:42:36;;;;;;;3.00;2.17;;;;;;;13.20;82.04;100664.16;4997471;28;20210;-78
2022/11/09 05:45:01;;;;;;;4.37;2.03;;;;;;;13.19;81.61;100662.44;5013772;28;20215;-78
2022/11/09 05:47:27;;;;;;;1.83;1.67;;;;;;;13.21;81.71;100660.72;5014623;28;20190;-78
2022/11/09 05:49:52;;;;;;;2.37;1.73;;;;;;;13.30;81.62;100657.38;5013637;28;20746;-77
2022/11/09 05:52:18;;;;;;;4.87;1.80;;;;;;;13.34;81.02;100659.06;5014354;28;20607;-78
2022/11/09 05:54:43;;;;;;;3.00;1.90;;;;;;;13.23;81.07;100656.47;5012592;28;20210;-78
2022/11/09 05:57:09;;;;;;;2.73;1.70;;;;;;;13.20;81.95;100658.13;5014765;28;20205;-78
2022/11/09 05:59:34;;;;;;;3.90;1.73;;;;;;;13.24;81.35;100663.31;5015198;28;20814;-78
2022/11/09 06:01:59;;;;;;;3.60;1.87;;;;;;;13.24;81.29;100660.75;5014846;28;20214;-78
2022/11/09 06:04:25;;;;;;;2.90;1.87;;;;;;;13.22;81.51;100659.88;5014099;28;20219;-78
2022/11/09 06:06:50;;;;;;;2.47;1.60;;;;;;;13.22;81.93;100657.28;5014768;28;20199;-78
2022/11/09 06:09:16;;;;;;;2.20;1.70;;;;;;;13.26;81.25;100653.06;5014272;28;20205;-78
2022/11/09 06:11:41;;;;;;;3.43;1.80;;;;;;;13.29;81.23;100645.34;5013606;28;20214;-78
2022/11/09 06:14:07;;;;;;;2.50;1.70;;;;;;;13.28;81.36;100647.06;5014246;28;20199;-78
2022/11/09 06:16:32;;;;;;;2.47;1.70;;;;;;;13.23;81.08;100647.88;5002257;28;20195;-77
2022/11/09 06:18:57;;;;;;;3.73;1.90;;;;;;;13.22;81.43;100653.88;5012057;28;20207;-78
2022/11/09 06:21:23;;;;;;;3.07;1.60;;;;;;;13.25;81.20;100656.47;5014397;28;20206;-78
2022/11/09 06:23:48;;;;;;;2.60;1.73;;;;;;;13.24;81.08;100653.03;5014454;28;20288;-78
2022/11/09 06:26:14;;;;;;;5.57;2.07;;;;;;;13.34;81.13;100656.50;5004629;28;20242;-78
2022/11/09 06:28:40;;;;;;;4.00;2.10;;;;;;;13.30;80.97;100672.78;5012531;28;20206;-78
2022/11/09 06:31:09;;;;;;;3.63;1.80;;;;;;;13.26;81.46;100679.59;5010456;28;20210;-77
2022/11/09 06:33:35;;;;;;;2.67;1.83;;;;;;;13.22;81.30;100672.72;5012650;28;20206;-78
2022/11/09 06:36:01;;;;;;;3.07;1.70;;;;;;;13.21;81.61;100677.88;5017417;28;20187;-77
2022/11/09 06:38:27;;;;;;;4.70;2.33;;;;;;;13.21;82.00;100683.88;5016340;28;20202;-78
2022/11/09 06:40:56;;;;;;;2.50;1.70;;;;;;;13.24;81.80;100690.72;5017360;28;20190;-77
2022/11/09 06:43:22;;;;;;;2.97;1.80;;;;;;;13.22;82.09;100695.88;5016734;28;20230;-77
2022/11/09 06:45:47;;;;;;;3.30;2.10;;;;;;;13.26;81.84;100696.75;5018417;28;20202;-77
2022/11/09 06:48:13;;;;;;;4.23;1.87;;;;;;;13.26;81.69;100692.47;4999376;28;20278;-78
2022/11/09 06:50:38;;;;;;;2.47;1.67;;;;;;;13.26;81.92;100696.75;5017394;28;20668;-77
2022/11/09 06:53:07;;;;;;;4.90;1.70;;;;;;;13.29;82.21;100701.91;5014998;28;20291;-78
2022/11/09 06:55:34;;;;;;;3.37;1.60;;;;;;;13.29;82.29;100705.34;5017275;28;20199;-77
2022/11/09 06:58:03;;;;;;;4.40;2.00;;;;;;;13.32;81.44;100707.06;5017206;28;20215;-78
2022/11/09 07:00:29;;;;;;;4.03;2.03;;;;;;;13.40;81.77;100715.72;5016690;28;20199;-78
2022/11/09 07:02:54;;;;;;;3.40;1.70;;;;;;;13.44;81.43;100722.59;5008015;28;20210;-78
2022/11/09 07:05:20;;;;;;;2.87;1.80;;;;;;;13.40;82.00;100721.69;5017585;28;20317;-78
2022/11/09 07:07:45;;;;;;;4.17;1.70;;;;;;;13.45;81.58;100716.59;5017480;28;20325;-77
2022/11/09 07:10:11;;;;;;;3.17;1.67;;;;;;;13.47;81.71;100720.91;5016071;28;20211;-78
2022/11/09 07:12:36;;;;;;;2.43;1.90;;;;;;;13.48;81.76;100722.59;5017716;28;20206;-78
2022/11/09 07:15:03;;;;;;;3.67;1.63;;;;;;;13.56;81.70;100727.78;5000023;28;20221;-78
2022/11/09 07:17:30;;;;;;;2.77;1.93;;;;;;;13.58;81.03;100736.41;5017319;28;20191;-78
2022/11/09 07:19:55;;;;;;;2.50;1.63;;;;;;;13.66;80.85;100733.00;5017648;28;20262;-78
2022/11/09 07:22:21;;;;;;;4.77;1.90;;;;;;;13.65;80.84;100739.00;5015020;28;20738;-78
2022/11/09 07:24:46;;;;;;;3.23;1.60;;;;;;;13.65;81.38;100744.16;5017848;28;20265;-78
2022/11/09 07:27:12;;;;;;;3.30;1.40;;;;;;;13.65;81.47;100740.72;5022154;28;20183;-78
2022/11/09 07:29:37;;;;;;;2.10;1.63;;;;;;;13.64;81.42;100737.28;5017380;28;20345;-78
2022/11/09 07:32:03;;;;;;;1.97;1.63;;;;;;;13.66;81.35;100733.00;5017932;28;20278;-78
2022/11/09 07:34:28;;;;;;;4.23;1.60;;;;;;;13.63;81.01;100737.28;5017828;28;20269;-78
2022/11/09 07:36:54;;;;;;;2.80;1.80;;;;;;;13.60;80.68;100734.69;5009263;28;20266;-78
2022/11/09 07:39:20;;;;;;;3.73;1.60;;;;;;;13.63;81.31;100732.13;5017610;28;20286;-78
2022/11/09 07:41:47;;;;;;;3.80;1.83;;;;;;;13.59;81.30;100743.25;5018283;28;20215;-77
2022/11/09 07:44:17;;;;;;;3.60;1.77;;;;;;;13.58;81.76;100741.53;4992243;28;20592;-78
2022/11/09 07:46:49;;;;;;;3.27;1.73;;;;;;;13.56;81.64;100738.09;5003821;28;20214;-77
2022/11/09 07:49:16;;;;;;;4.80;2.00;;;;;;;13.55;81.98;100739.81;5012989;28;20187;-78
2022/11/09 07:51:41;;;;;;;3.27;1.80;;;;;;;13.53;81.92;100738.94;5014234;28;20214;-78
2022/11/09 07:54:07;;;;;;;3.03;1.77;;;;;;;13.55;82.18;100738.94;5015788;28;20199;-78
2022/11/09 07:56:33;;;;;;;2.50;1.50;;;;;;;13.50;82.23;100744.06;5016827;28;20282;-78
2022/11/09 07:58:58;;;;;;;2.43;1.60;;;;;;;13.49;82.17;100752.63;5007714;28;20255;-77
2022/11/09 08:01:24;;;;;;;2.13;1.80;;;;;;;13.50;82.28;100753.50;5015603;28;20848;-78
2022/11/09 08:03:49;;;;;;;4.00;1.77;;;;;;;13.54;82.33;100753.50;5015645;28;20317;-78
2022/11/09 08:06:15;;;;;;;4.77;1.90;;;;;;;13.60;82.31;100758.72;5016939;28;20183;-78
2022/11/09 08:08:40;;;;;;;3.80;1.80;;;;;;;13.66;82.27;100756.16;5016861;28;20214;-78
2022/11/09 08:11:05;;;;;;;4.50;1.53;;;;;;;13.72;81.42;100758.75;5004523;28;20294;-78
2022/11/09 08:13:31;;;;;;;3.37;1.70;;;;;;;13.77;81.41;100751.06;5014769;28;20294;-78
2022/11/09 08:16:00;;;;;;;4.30;1.70;;;;;;;13.80;81.35;100754.53;5015976;28;20220;-78
2022/11/09 08:18:26;;;;;;;2.70;1.67;;;;;;;13.84;81.36;100757.97;5015392;28;20195;-78
2022/11/09 08:20:51;;;;;;;4.33;2.00;;;;;;;13.84;81.60;100753.69;5015912;28;20613;-78
2022/11/09 08:23:19;;;;;;;2.47;1.57;;;;;;;13.88;81.17;100754.56;5016617;28;20219;-78
2022/11/09 08:25:46;;;;;;;5.20;1.90;;;;;;;13.89;81.14;100752.00;5016385;28;20274;-78
2022/11/09 08:28:14;;;;;;;3.60;2.23;;;;;;;13.91;81.55;100755.41;5015245;28;20221;-77
2022/11/09 08:30:39;;;;;;;2.53;1.50;;;;;;;13.93;81.67;100758.88;5015932;28;20276;-78
2022/11/09 08:33:05;;;;;;;3.30;1.50;;;;;;;13.96;80.72;100753.75;5014310;28;20187;-78
2022/11/09 08:35:30;;;;;;;2.37;1.70;;;;;;;13.98;81.20;100757.19;5014738;28;20205;-78
2022/11/09 08:38:00;;;;;;;2.90;1.77;;;;;;;13.97;81.39;100750.31;5014415;28;20570;-78
2022/11/09 08:40:25;;;;;;;2.33;1.40;;;;;;;13.96;81.34;100750.31;5013896;28;20191;-77
2022/11/09 08:42:51;;;;;;;4.00;2.27;;;;;;;13.97;81.69;100749.44;5014184;28;20679;-78
2022/11/09 08:45:17;;;;;;;7.20;1.80;;;;;;;13.97;82.05;100754.59;5013982;28;20699;-78
2022/11/09 08:47:44;;;;;;;3.00;1.70;;;;;;;14.00;81.11;100754.63;5014848;28;20817;-77
2022/11/09 08:50:11;;;;;;;3.73;1.93;;;;;;;14.03;81.72;100762.34;5015081;28;20179;-78
2022/11/09 08:52:37;;;;;;;3.37;1.93;;;;;;;14.06;81.34;100764.94;4997757;28;20549;-78
2022/11/09 08:55:03;;;;;;;2.70;1.77;;;;;;;14.01;81.21;100770.06;5014422;28;20249;-78
2022/11/09 08:57:29;;;;;;;3.60;1.90;;;;;;;14.00;81.51;100775.22;4995024;28;20195;-78
2022/11/09 08:59:55;;;;;;;3.30;1.50;;;;;;;13.98;81.89;100770.06;5015566;28;20191;-78
2022/11/09 09:02:20;;;;;;;3.03;1.60;;;;;;;13.97;81.95;100775.19;5015001;28;20202;-78
2022/11/09 09:04:46;;;;;;;3.33;1.80;;;;;;;14.03;81.85;100778.66;5012008;28;20277;-78
2022/11/09 09:07:12;;;;;;;2.97;1.60;;;;;;;14.06;81.26;100772.66;5012527;28;20675;-78
2022/11/09 09:09:38;;;;;;;3.37;1.77;;;;;;;14.07;81.11;100777.81;5012769;28;20230;-78
2022/11/09 09:12:05;;;;;;;3.70;1.80;;;;;;;14.15;80.96;100788.16;4992733;28;20191;-78
2022/11/09 09:14:31;;;;;;;4.87;1.73;;;;;;;14.39;80.40;100783.09;5008223;28;20289;-78
2022/11/09 09:16:56;;;;;;;2.97;1.70;;;;;;;15.53;76.26;100775.47;5013397;28;20206;-78
2022/11/09 09:19:22;;;;;;;4.10;1.80;;;;;;;16.71;70.65;100767.25;5014452;28;20199;-78
2022/11/09 09:21:47;;;;;;;3.73;1.67;;;;;;;17.21;67.97;100765.13;5015395;28;20207;-78
2022/11/09 09:24:12;;;;;;;4.00;1.90;;;;;;;18.39;64.31;100756.94;5010472;28;20214;-78
2022/11/09 09:26:38;;;;;;;4.73;1.63;;;;;;;18.24;63.34;100763.13;5016629;28;20187;-78
2022/11/09 09:29:03;;;;;;;3.53;1.97;;;;;;;18.28;63.91;100767.41;5014877;28;20652;-78
2022/11/09 09:31:29;;;;;;;2.80;1.40;;;;;;;17.76;65.10;100768.06;5014489;28;20203;-78
2022/11/09 09:33:54;;;;;;;4.53;1.73;;;;;;;16.25;70.84;100781.25;5012978;28;20211;-77
2022/11/09 09:36:23;;;;;;;4.93;1.90;;;;;;;16.57;70.30;100779.41;5013141;28;20249;-78
2022/11/09 09:38:53;;;;;;;6.27;2.20;;;;;;;15.71;73.58;100788.34;5013535;28;20195;-77
2022/11/09 09:41:26;;;;;;;3.67;1.60;;;;;;;15.93;72.17;100790.03;5010506;28;20794;-78
2022/11/09 09:43:55;;;;;;;2.70;1.47;;;;;;;18.59;64.38;100771.34;5015469;28;20595;-78
2022/11/09 09:46:58;;;;;;;3.77;1.90;;;;;;;19.84;58.83;100762.28;5016551;28;20550;-78
2022/11/09 09:49:27;;;;;;;1.95;1.50;;;;;;;21.26;54.09;100767.78;5020959;28;20522;-77
2022/11/09 09:52:00;;;;;;;3.20;1.58;;;;;;;21.50;52.85;100760.19;5013803;28;20182;-78
2022/11/09 09:54:40;;;;;;;3.50;1.60;;;;;;;22.47;51.10;100765.31;5017214;28;20218;-78
2022/11/09 09:57:16;;;;;;;2.50;1.27;;;;;;;22.80;50.38;100762.53;5019451;28;20729;-78
2022/11/09 09:59:46;;;;;;;3.38;1.33;;;;;;;20.56;55.85;100772.94;5015319;28;20175;-78
2022/11/09 10:02:25;;;;;;;2.53;1.30;;;;;;;21.95;51.94;100771.16;5006731;28;20672;-78
2022/11/09 10:04:52;;;;;;;2.65;1.65;;;;;;;21.67;52.41;100755.41;5013790;28;20633;-78
2022/11/09 10:07:39;;;;;;;2.83;1.52;;;;;;;22.37;50.79;100753.41;5013880;28;20191;-78
2022/11/09 10:10:26;;;;;;;1.95;1.40;;;;;;;21.36;51.61;100761.44;5012023;28;20633;-78
2022/11/09 10:13:29;;;;;;;3.38;1.58;;;;;;;21.76;51.99;100755.19;5009656;28;20194;-78
2022/11/09 10:16:05;;;;;;;3.30;1.95;;;;;;;22.89;48.52;100745.69;5010860;28;20193;-78
2022/11/09 10:19:13;;;;;;;2.75;1.40;;;;;;;24.47;44.98;100743.50;5012900;28;20183;-78
2022/11/09 10:22:05;;;;;;;2.20;1.58;;;;;;;22.29;49.88;100751.88;5003696;28;20237;-77
2022/11/09 10:24:30;;;;;;;3.00;1.80;;;;;;;20.53;53.95;100766.06;5028994;28;20222;-78
2022/11/09 10:27:00;;;;;;;4.43;1.87;;;;;;;19.15;58.30;100778.25;5018954;28;20353;-78
2022/11/09 10:29:34;;;;;;;5.60;2.00;;;;;;;19.46;58.79;100782.06;4998686;28;20213;-77
2022/11/09 10:32:21;;;;;;;5.67;1.90;;;;;;;18.93;60.22;100774.31;5012462;28;21022;-77
2022/11/09 10:34:46;;;;;;;5.93;1.80;;;;;;;18.42;61.42;100777.66;5012184;28;20214;-78
2022/11/09 10:37:18;;;;;;;5.57;1.90;;;;;;;17.97;63.26;100780.78;5013280;28;20199;-78
2022/11/09 10:39:59;;;;;;;5.63;2.00;;;;;;;18.02;62.81;100772.09;5011842;28;20194;-78
2022/11/09 10:42:57;;;;;;;6.07;1.90;;;;;;;18.75;60.11;100775.41;5013172;28;20190;-78
2022/11/09 10:45:43;;;;;;;5.10;1.80;;;;;;;18.33;60.39;100765.66;5007428;28;20218;-78
2022/11/09 10:48:36;;;;;;;6.80;2.10;;;;;;;17.73;61.69;100766.34;5013055;28;20198;-78
2022/11/09 10:51:41;;;;;;;5.67;2.03;;;;;;;18.93;59.04;100756.97;5011858;28;20237;-78
2022/11/09 10:54:32;;;;;;;5.40;1.95;;;;;;;20.25;54.01;100741.53;5014119;28;20711;-78
2022/11/09 10:57:18;;;;;;;2.75;1.88;;;;;;;23.75;45.87;100731.38;5013618;28;20206;-78
2022/11/09 11:00:05;;;;;;;4.88;2.67;;;;;;;25.71;40.05;100726.94;5013841;28;20206;-78
2022/11/09 11:02:50;;;;;;;5.82;2.60;;;;;;;25.46;40.57;100719.28;5008860;28;20198;-78
2022/11/09 11:05:35;;;;;;;3.50;1.80;;;;;;;26.69;38.09;100721.47;5013058;28;20222;-78
2022/11/09 11:08:25;;;;;;;4.30;1.75;;;;;;;27.83;37.20;100720.88;5012459;28;20607;-78
2022/11/09 11:11:30;;;;;;;2.95;1.70;;;;;;;27.19;37.16;100727.72;5012991;28;20651;-78
2022/11/09 11:14:20;;;;;;;5.18;1.70;;;;;;;26.77;37.37;100718.44;5011287;28;20214;-78
2022/11/09 11:17:04;;;;;;;3.92;1.60;;;;;;;28.28;35.06;100715.72;5012974;28;20256;-78
2022/11/09 11:19:48;;;;;;;3.80;1.50;;;;;;;22.87;44.46;100737.91;5011156;28;20206;-78
2022/11/09 11:22:32;;;;;;;2.70;1.47;;;;;;;20.91;50.42;100736.56;5014405;28;20194;-78
2022/11/09 11:25:19;;;;;;;6.17;1.73;;;;;;;19.98;52.76;100754.19;5008269;28;20778;-78
2022/11/09 11:28:25;;;;;;;4.47;1.60;;;;;;;18.92;56.02;100755.25;5013927;28;20260;-78
2022/11/09 11:31:20;;;;;;;7.33;1.97;;;;;;;21.77;49.08;100740.38;5009746;28;20205;-78
2022/11/09 11:34:11;;;;;;;5.40;1.77;;;;;;;21.01;49.51;100744.09;5015898;28;20642;-78
2022/11/09 11:37:11;;;;;;;4.40;1.67;;;;;;;19.26;54.66;100743.47;5013554;28;20210;-78